Pine Island, NY (10969)

4:41 PM EST on March 01, 2017 (GMT -0500)
wallkill wildlife refuge | | Change Station
Active Advisory: Wind Advisory

Elev 200 ft 41.27 °N, 74.53 °W | Updated 1 minute ago

Mostly Cloudy
Mostly Cloudy
62.2 °F
Feels Like 62.2 °F
N
2.0
Wind Variable Wind from ESE

Today
High -- | Low -- °F
--% Chance of Precip.
Yesterday
High -- | Low -- °F
Precip. -- in
Pressure 29.43 in
Visibility 7.0 miles
Clouds Scattered Clouds 2900 ft
Mostly Cloudy 3500 ft
Dew Point 59 °F
Humidity 91%
Rainfall 0.23 in
Snow Depth Not available.
6:31 AM 5:49 PM
Waxing Crescent, 13% visible
SPECI KFWN 012120Z AUTO 24006KT 7SM SCT029 BKN035 17/16 A2943 RMK AO2 T01670156
Pressure 29.43 in
Visibility 7.0 miles
Clouds Scattered Clouds 2900 ft
Mostly Cloudy 3500 ft
Dew Point 59 °F
Humidity 91%
Rainfall 0.23 in
Snow Depth Not available.
6:31 AM 5:49 PM
Waxing Crescent, 13% visible
SPECI KFWN 012120Z AUTO 24006KT 7SM SCT029 BKN035 17/16 A2943 RMK AO2 T01670156

Get Your Daily Forecast Email!

Thanks for signing up!

Be on the lookout for a verification email in your inbox.

You'll start receiving the daily forecast at 8 AM.

×

10-Day Weather Forecast

Almanac

Astronomy

Mar. 01, 2017 Rise Set
Actual Time
Civil Twilight
Nautical Twilight
Astronomical Twilight
Moon
Length of Visible Light
Length of Day
Tomorrow will be .
, % of the Moon is Illuminated

Today's Extremes

State Highs State Lows

Community

WunderPhotos

Upload Photos

1,962,540 photos uploaded!

WunderBlog® & News

Nearby

Air Quality

  Air Quality AQ Index Pollutant
Not available.

Snow Depth

Station Depth Elevation

Earthquake Activity

City Distance Mag. Time & Date
Minimum magnitude displayed is 2.5.

Coastal Water Temperatures

Place Temperature

Stations

Nearby Weather Stations

Station Location Temp. Windchill Dew Point Humidity Wind Precip. Elev Updated Type
                   

Watches & Warnings

Wind Advisory
Issued: 3:20 PM EST Mar. 1, 2017 – National Weather Service

... Wind Advisory remains in effect from 1 am to 6 PM EST
Thursday...

* winds... west 15 to 25 mph with gusts 45 to 50 mph.

* Timing... Wind Advisory is late tonight and Thursday, with the
strongest winds most likely during Thursday morning.

* Impacts... gusty winds will blow around unsecured objects. Tree
limbs could be blown down and a few power outages may result.
Limited visibilities will make travel very difficult.

Precautionary/preparedness actions...

A Wind Advisory is issued when sustained winds of 31 to 39 mph...
or gusts of 46 to 57 mph... are expected or occurring. Winds this
strong can make driving difficult... especially for high profile
vehicles. Use extra caution.